Time;durP1;ratioP1;P1;durP2;ratioP2;P2;SDS_P1;SDS_P2;PMS_P1;PMS_P2;Temp;Humidity;BMP_temperature;BMP_pressure;BME280_temperature;BME280_humidity;BME280_pressure;Samples;Min_cycle;Max_cycle;Signal;HPM_P1;HPM_P2
2021/05/10 00:00:20;;;;;;;2.28;1.12;;;18.70;85.10;;;19.08;59.59;94169.00;2428888;56;26622;-62
2021/05/10 00:03:07;;;;;;;4.50;1.42;;;18.70;84.90;;;19.10;59.15;94178.00;2211021;57;26128;-62
2021/05/10 00:05:53;;;;;;;1.50;1.00;;;18.60;85.20;;;18.96;60.01;94183.00;2428364;56;26064;-63
2021/05/10 00:08:39;;;;;;;1.73;1.15;;;18.70;84.50;;;19.11;58.44;94177.00;2211247;57;26048;-62
2021/05/10 00:11:27;;;;;;;1.98;1.30;;;18.70;84.10;;;19.17;57.64;94173.00;2428382;56;26064;-61
2021/05/10 00:14:13;;;;;;;2.15;1.20;;;18.80;84.10;;;19.17;57.57;94178.00;2211207;57;26085;-62
2021/05/10 00:16:59;;;;;;;2.92;1.30;;;18.80;84.10;;;19.17;57.17;94191.00;2210869;57;26116;-61
2021/05/10 00:19:46;;;;;;;3.00;1.45;;;18.70;84.60;;;19.05;58.15;94191.00;2428385;56;26556;-61
2021/05/10 00:22:34;;;;;;;1.42;1.23;;;18.60;84.80;;;18.93;58.71;94180.00;2210885;57;26436;-62
2021/05/10 00:25:20;;;;;;;3.20;1.23;;;18.40;85.90;;;18.68;61.35;94191.00;2428325;56;26163;-62
2021/05/10 00:28:08;;;;;;;1.95;1.20;;;18.20;86.10;;;18.57;62.00;94194.00;2210211;57;26072;-62
2021/05/10 00:30:54;;;;;;;1.77;1.20;;;18.00;87.70;;;18.21;65.96;94185.00;2427831;56;26176;-62
2021/05/10 00:33:40;;;;;;;3.03;1.30;;;17.70;88.10;;;17.85;67.90;94191.00;2210473;57;26091;-61
2021/05/10 00:36:26;;;;;;;1.23;1.12;;;17.30;89.40;;;17.45;72.56;94187.00;2427900;56;26149;-61
2021/05/10 00:39:13;;;;;;;1.60;1.20;;;16.90;90.00;;;17.08;74.60;94190.00;2210556;57;26049;-62
2021/05/10 00:41:59;;;;;;;2.08;1.58;;;16.70;90.20;;;16.87;76.47;94186.00;2210276;57;26056;-62
2021/05/10 00:44:45;;;;;;;2.12;1.20;;;16.40;90.80;;;16.59;80.91;94186.00;2428115;56;26120;-62
2021/05/10 00:47:32;;;;;;;1.42;1.20;;;16.40;90.60;;;16.64;79.31;94192.00;2210743;57;26041;-62
2021/05/10 00:50:19;;;;;;;3.30;1.25;;;16.20;90.80;;;16.48;81.07;94202.00;2427784;56;26613;-62
2021/05/10 00:53:06;;;;;;;2.05;1.25;;;16.00;91.20;;;16.28;85.16;94210.00;2210256;57;26108;-61
2021/05/10 00:55:54;;;;;;;2.55;1.50;;;15.90;91.50;;;16.13;87.12;94197.00;2428034;56;26645;-62
2021/05/10 00:58:40;;;;;;;2.45;1.40;;;15.90;91.40;;;16.23;86.51;94200.00;2210542;57;26243;-62
2021/05/10 01:01:27;;;;;;;3.20;1.37;;;16.30;90.90;;;16.66;81.71;94205.00;2428143;56;26041;-62
2021/05/10 01:04:13;;;;;;;2.03;1.30;;;16.30;90.80;;;16.59;81.96;94202.00;2210604;57;26052;-62
2021/05/10 01:07:00;;;;;;;2.10;1.33;;;16.30;90.50;;;16.64;79.48;94200.00;2210339;57;26076;-61
2021/05/10 01:09:47;;;;;;;2.85;1.25;;;16.20;90.80;;;16.50;81.58;94195.00;2427927;56;26551;-62
2021/05/10 01:12:33;;;;;;;2.60;1.30;;;16.00;90.90;;;16.32;83.42;94196.00;2210521;57;26055;-62
2021/05/10 01:15:23;;;;;;;2.40;1.27;;;15.90;91.20;;;16.15;84.83;94198.00;2428236;56;26227;-62
2021/05/10 01:18:10;;;;;;;3.12;1.30;;;15.80;91.40;;;16.04;86.86;94202.00;2210274;57;26161;-61
2021/05/10 01:20:59;;;;;;;3.60;1.45;;;15.60;91.70;;;15.90;90.08;94191.00;2427864;56;26068;-61
2021/05/10 01:23:46;;;;;;;2.97;1.27;;;15.60;91.80;;;15.78;90.54;94197.00;2210231;57;26076;-61
2021/05/10 01:26:33;;;;;;;2.75;1.33;;;15.50;92.10;;;15.76;92.35;94195.00;2427926;56;26067;-61
2021/05/10 01:29:20;;;;;;;1.33;1.12;;;15.40;92.20;;;15.72;92.69;94192.00;2210667;57;26556;-62
2021/05/10 01:32:07;;;;;;;1.80;1.30;;;15.30;92.30;;;15.59;94.77;94187.00;2428510;56;26084;-62
2021/05/10 01:34:53;;;;;;;2.53;1.30;;;15.10;92.70;;;15.33;98.25;94188.00;2210200;57;26204;-62
2021/05/10 01:37:39;;;;;;;1.67;1.20;;;15.00;92.60;;;15.36;97.91;94188.00;2427837;56;26610;-61
2021/05/10 01:40:27;;;;;;;2.17;1.27;;;15.00;92.70;;;15.33;98.55;94179.00;2210781;57;26052;-61
2021/05/10 01:43:15;;;;;;;1.67;1.20;;;15.00;93.00;;;15.26;100.00;94184.00;2428097;56;26136;-61
2021/05/10 01:46:01;;;;;;;2.85;1.23;;;14.80;93.30;;;15.13;100.00;94191.00;2210712;57;26668;-61
2021/05/10 01:48:48;;;;;;;3.60;1.30;;;14.80;93.40;;;15.08;100.00;94194.00;2210280;57;26137;-61
2021/05/10 01:51:36;;;;;;;1.87;1.30;;;14.70;93.70;;;14.91;100.00;94193.00;2427924;56;26593;-61
2021/05/10 01:54:22;;;;;;;3.05;1.40;;;14.60;93.70;;;14.91;100.00;94192.00;2211070;57;26080;-62
2021/05/10 01:57:11;;;;;;;3.80;1.60;;;14.50;93.70;;;14.83;100.00;94187.00;2428414;56;26208;-62
2021/05/10 01:59:57;;;;;;;2.07;1.30;;;14.40;94.00;;;14.73;100.00;94201.00;2210938;57;26112;-61
2021/05/10 02:02:43;;;;;;;7.17;1.30;;;14.40;94.00;;;14.75;100.00;94203.00;2428027;56;26076;-62
2021/05/10 02:05:30;;;;;;;3.23;1.40;;;14.40;94.00;;;14.70;100.00;94198.00;2427907;56;26053;-63
2021/05/10 02:08:19;;;;;;;2.03;1.20;;;14.40;94.00;;;14.72;100.00;94191.00;2428343;56;26075;-64
2021/05/10 02:11:05;;;;;;;1.95;1.08;;;14.40;94.20;;;14.71;100.00;94192.00;2210327;57;26558;-65
2021/05/10 02:13:52;;;;;;;2.40;1.40;;;14.30;94.20;;;14.63;100.00;94189.00;2427914;56;26103;-64
2021/05/10 02:16:38;;;;;;;2.03;1.20;;;14.20;94.60;;;14.50;100.00;94190.00;2210544;57;26213;-64
2021/05/10 02:19:24;;;;;;;2.47;1.25;;;14.20;94.40;;;14.52;100.00;94193.00;2428168;56;27014;-64
2021/05/10 02:22:10;;;;;;;1.57;1.30;;;14.20;94.60;;;14.49;100.00;94188.00;2428037;56;26545;-64
2021/05/10 02:24:57;;;;;;;2.33;1.57;;;14.10;94.60;;;14.46;100.00;94191.00;2210456;57;26555;-64
2021/05/10 02:27:43;;;;;;;2.65;1.30;;;14.20;94.30;;;14.53;100.00;94198.00;2428066;56;26079;-64
2021/05/10 02:30:31;;;;;;;1.67;1.20;;;14.30;93.90;;;14.70;100.00;94190.00;2210131;57;26626;-64
2021/05/10 02:33:20;;;;;;;1.70;1.30;;;14.40;93.90;;;14.78;100.00;94182.00;2428298;56;27349;-64
2021/05/10 02:36:08;;;;;;;2.37;1.25;;;14.40;93.80;;;14.76;100.00;94178.00;2210260;57;26195;-64
2021/05/10 02:38:54;;;;;;;1.93;1.33;;;14.40;93.60;;;14.78;100.00;94179.00;2428219;56;26114;-64
2021/05/10 02:41:40;;;;;;;1.97;1.33;;;14.40;94.30;;;14.78;100.00;94187.00;2210319;57;26069;-64
2021/05/10 02:44:27;;;;;;;1.30;1.20;;;14.40;94.30;;;14.72;100.00;94180.00;1920210;57;19492105;-64
2021/05/10 02:47:13;;;;;;;1.70;1.40;;;14.40;93.90;;;14.80;100.00;94185.00;2210722;57;26044;-64
2021/05/10 02:50:01;;;;;;;3.30;1.27;;;14.30;94.10;;;14.73;100.00;94185.00;2210174;57;26585;-64
2021/05/10 02:52:47;;;;;;;1.42;1.20;;;14.30;94.30;;;14.73;100.00;94177.00;2427764;56;26176;-64
2021/05/10 02:55:34;;;;;;;1.45;1.30;;;14.30;94.10;;;14.67;100.00;94167.00;2210621;57;26120;-64
2021/05/10 02:58:20;;;;;;;3.27;1.40;;;14.30;94.00;;;14.68;100.00;94170.00;2428194;56;26166;-65
2021/05/10 03:01:07;;;;;;;1.83;1.23;;;14.30;94.00;;;14.73;100.00;94174.00;2210587;57;26072;-64
2021/05/10 03:03:53;;;;;;;2.20;1.30;;;14.30;94.30;;;14.60;100.00;94172.00;2428094;56;26168;-64
2021/05/10 03:06:40;;;;;;;2.92;1.40;;;14.30;94.10;;;14.74;100.00;94165.00;2210091;57;26146;-64
2021/05/10 03:09:26;;;;;;;2.30;1.33;;;14.30;94.20;;;14.62;100.00;94161.00;2428135;56;26857;-64
2021/05/10 03:12:12;;;;;;;2.47;1.40;;;14.30;93.90;;;14.66;100.00;94159.00;2210124;57;26082;-64
2021/05/10 03:14:59;;;;;;;4.03;1.40;;;14.30;93.70;;;14.77;100.00;94156.00;2210709;57;26062;-63
2021/05/10 03:17:46;;;;;;;3.23;1.40;;;14.40;93.50;;;14.90;100.00;94162.00;2428231;56;26140;-64
2021/05/10 03:20:32;;;;;;;2.85;1.40;;;14.60;93.50;;;14.93;100.00;94163.00;2210224;57;26073;-64
2021/05/10 03:23:19;;;;;;;2.83;1.27;;;14.50;93.50;;;14.87;100.00;94162.00;2428157;56;26159;-64
2021/05/10 03:26:05;;;;;;;2.77;1.37;;;14.40;93.80;;;14.81;100.00;94171.00;2210414;57;26098;-64
2021/05/10 03:28:52;;;;;;;3.53;1.43;;;14.40;94.70;;;14.64;100.00;94173.00;2427849;56;26167;-64
2021/05/10 03:31:38;;;;;;;2.85;1.37;;;14.40;93.70;;;14.82;100.00;94178.00;2211001;57;26570;-63
2021/05/10 03:34:24;;;;;;;1.55;1.35;;;14.40;94.20;;;14.73;100.00;94179.00;2428511;56;26260;-63
2021/05/10 03:37:11;;;;;;;1.60;1.30;;;14.50;93.10;;;15.04;99.95;94187.00;2210445;57;26124;-64
2021/05/10 03:39:57;;;;;;;2.33;1.30;;;14.60;93.10;;;15.11;98.77;94193.00;2210338;57;26094;-63
2021/05/10 03:42:44;;;;;;;3.78;1.30;;;14.70;93.10;;;15.14;98.71;94189.00;2428144;56;26064;-63
2021/05/10 03:45:30;;;;;;;2.10;1.40;;;14.80;92.40;;;15.24;94.31;94173.00;2210773;57;26259;-64
2021/05/10 03:48:16;;;;;;;1.25;1.12;;;14.70;93.00;;;15.13;98.34;94167.00;2428664;56;26537;-64
2021/05/10 03:51:03;;;;;;;2.17;1.30;;;14.80;92.70;;;15.20;95.87;94161.00;2210040;57;26538;-64
2021/05/10 03:53:50;;;;;;;1.58;1.15;;;14.80;92.70;;;15.18;96.70;94155.00;2428037;56;26067;-64
2021/05/10 03:56:36;;;;;;;2.17;1.37;;;15.00;92.00;;;15.39;90.37;94145.00;2210555;57;26609;-64
2021/05/10 03:59:22;;;;;;;2.00;1.30;;;15.00;92.70;;;15.42;94.82;94149.00;2428236;56;26565;-64
2021/05/10 04:02:09;;;;;;;2.60;1.40;;;15.00;92.40;;;15.40;93.81;94154.00;2428315;56;26573;-64
2021/05/10 04:05:03;;;;;;;2.22;1.15;;;15.00;92.50;;;15.38;93.38;94156.00;2210618;57;26113;-63
2021/05/10 04:07:54;;;;;;;1.62;1.25;;;15.10;92.40;;;15.49;92.22;94180.00;2210549;57;26662;-63
2021/05/10 04:10:46;;;;;;;2.10;1.10;;;15.10;92.30;;;15.51;92.12;94188.00;2427821;56;26100;-64
2021/05/10 04:13:36;;;;;;;1.75;1.37;;;15.10;92.40;;;15.58;92.28;94180.00;2210848;57;26087;-63
2021/05/10 04:16:24;;;;;;;1.48;1.23;;;15.20;92.40;;;15.60;91.72;94182.00;2427517;56;26161;-64
2021/05/10 04:19:10;;;;;;;2.03;1.30;;;15.20;92.30;;;15.66;90.89;94180.00;2208861;57;26548;-63
2021/05/10 04:21:57;;;;;;;1.58;1.17;;;15.20;92.20;;;15.63;90.59;94175.00;2210483;57;26156;-63
2021/05/10 04:24:43;;;;;;;3.00;1.40;;;15.20;92.60;;;15.61;93.65;94172.00;2428476;56;26557;-64
2021/05/10 04:27:30;;;;;;;2.78;1.30;;;15.20;92.60;;;15.62;93.75;94160.00;2210201;57;26165;-64
2021/05/10 04:30:17;;;;;;;1.33;1.15;;;15.10;92.30;;;15.57;92.18;94160.00;2428268;56;26576;-64
2021/05/10 04:33:05;;;;;;;3.70;1.40;;;15.20;92.10;;;15.69;89.75;94164.00;2210892;57;26175;-64
2021/05/10 04:35:51;;;;;;;1.70;1.20;;;15.30;92.20;;;15.74;89.90;94158.00;2427837;56;26088;-64
2021/05/10 04:38:42;;;;;;;2.45;1.30;;;15.40;92.40;;;15.85;91.51;94167.00;2210757;57;26073;-63
2021/05/10 04:41:28;;;;;;;1.55;1.30;;;15.40;92.50;;;15.86;91.05;94188.00;2427922;56;26092;-64
2021/05/10 04:44:14;;;;;;;2.83;1.50;;;15.40;92.50;;;15.82;91.76;94189.00;2210898;57;26060;-64
2021/05/10 04:47:01;;;;;;;2.30;1.52;;;15.20;93.10;;;15.67;95.84;94190.00;2210737;57;26161;-64
2021/05/10 04:49:48;;;;;;;3.90;1.37;;;15.20;93.70;;;15.72;99.48;94190.00;2427809;56;26151;-65
2021/05/10 04:52:34;;;;;;;1.77;1.30;;;15.20;93.70;;;15.58;100.00;94181.00;2210340;57;26120;-64
2021/05/10 04:55:20;;;;;;;4.10;1.60;;;15.10;93.50;;;15.65;98.97;94182.00;2428394;56;26292;-64
2021/05/10 04:58:07;;;;;;;2.75;1.40;;;15.10;94.20;;;15.63;100.00;94186.00;2210404;57;26524;-65
2021/05/10 05:00:54;;;;;;;2.58;1.30;;;15.10;94.40;;;15.71;100.00;94188.00;2427705;56;26153;-64
2021/05/10 05:03:40;;;;;;;3.30;1.30;;;15.10;95.40;;;15.77;100.00;94198.00;2210780;57;26119;-64
2021/05/10 05:06:27;;;;;;;3.22;1.40;;;15.30;94.50;;;16.09;100.00;94196.00;2427883;56;26083;-64
2021/05/10 05:09:13;;;;;;;4.07;1.62;;;15.70;94.90;;;16.62;100.00;94201.00;2210373;57;26124;-64
2021/05/10 05:11:59;;;;;;;2.10;1.35;;;15.50;96.60;;;16.87;100.00;94206.00;2210583;57;26650;-64
2021/05/10 05:14:46;;;;;;;3.25;1.37;;;15.80;97.10;;;17.69;100.00;94200.00;2428487;56;26567;-64
2021/05/10 05:17:32;;;;;;;1.42;1.20;;;16.20;95.30;;;18.09;92.78;94197.00;2210448;57;26057;-63
2021/05/10 05:20:19;;;;;;;2.12;1.37;;;16.60;94.30;;;18.43;89.33;94199.00;2428130;56;26066;-64
2021/05/10 05:23:22;;;;;;;2.83;1.40;;;16.90;95.40;;;18.71;96.28;94205.00;2210423;57;26468;-64
2021/05/10 05:26:08;;;;;;;4.47;1.40;;;17.40;96.50;;;19.97;97.15;94226.00;2210687;57;26048;-63
2021/05/10 05:28:54;;;;;;;2.33;1.40;;;18.30;95.80;;;21.97;81.48;94222.00;2428443;56;26124;-62
2021/05/10 05:31:41;;;;;;;3.90;1.60;;;19.60;94.60;;;24.79;61.96;94218.00;2211026;57;26063;-62
2021/05/10 05:34:27;;;;;;;3.55;1.60;;;21.10;92.20;;;27.14;46.68;94203.00;2210632;57;26879;-63
2021/05/10 05:37:14;;;;;;;1.58;1.30;;;22.60;90.50;;;27.78;40.90;94208.00;2428632;56;26112;-62
2021/05/10 05:40:00;;;;;;;4.78;1.50;;;23.90;88.80;;;29.39;39.30;94215.00;2210343;57;26537;-63
2021/05/10 05:42:46;;;;;;;2.47;1.40;;;24.50;87.30;;;29.70;38.32;94228.00;2428128;56;26112;-63
2021/05/10 05:45:33;;;;;;;2.40;1.33;;;25.20;79.10;;;29.03;33.42;94230.00;2210995;57;26095;-63
2021/05/10 05:48:19;;;;;;;2.40;1.40;;;24.70;79.80;;;27.86;35.50;94228.00;2428855;56;26065;-63
2021/05/10 05:51:09;;;;;;;2.85;1.58;;;24.70;82.60;;;28.08;37.72;94239.00;2210192;57;26063;-62
2021/05/10 05:53:56;;;;;;;3.15;1.80;;;24.30;81.20;;;27.23;37.78;94229.00;2428133;56;26156;-63
2021/05/10 05:56:42;;;;;;;3.17;1.70;;;24.00;83.10;;;26.08;40.19;94235.00;2210487;57;26557;-63
2021/05/10 05:59:31;;;;;;;3.53;1.60;;;22.80;84.40;;;23.48;46.17;94240.00;2210955;57;26509;-63
2021/05/10 06:02:17;;;;;;;2.83;1.30;;;22.30;84.90;;;22.91;49.32;94238.00;2428807;56;26061;-63
2021/05/10 06:05:05;;;;;;;2.45;1.40;;;22.10;85.00;;;23.06;48.39;94240.00;2211106;57;26180;-63
2021/05/10 06:07:52;;;;;;;2.12;1.30;;;22.30;85.60;;;23.69;48.29;94238.00;2427906;56;26163;-62
2021/05/10 06:10:38;;;;;;;4.45;1.40;;;22.70;84.20;;;24.89;43.54;94240.00;2210722;57;26140;-63
2021/05/10 06:13:25;;;;;;;3.70;1.42;;;23.10;81.00;;;24.92;41.40;94238.00;2428537;56;26557;-63
2021/05/10 06:16:11;;;;;;;1.98;1.23;;;23.10;80.80;;;24.47;41.65;94237.00;2210731;57;26128;-63
2021/05/10 06:18:58;;;;;;;4.32;1.50;;;23.40;80.40;;;25.38;40.53;94241.00;2428715;56;26628;-63
2021/05/10 06:21:45;;;;;;;3.03;1.50;;;22.90;78.40;;;23.83;40.31;94231.00;2210768;57;26155;-63
2021/05/10 06:24:31;;;;;;;3.12;1.40;;;22.60;80.70;;;23.94;42.40;94227.00;2428079;56;26075;-63
2021/05/10 06:27:17;;;;;;;1.73;1.30;;;22.90;79.70;;;24.20;40.68;94234.00;2210831;57;26528;-63
2021/05/10 06:30:06;;;;;;;4.68;1.50;;;23.30;79.30;;;25.22;39.32;94245.00;2210716;57;26080;-63
2021/05/10 06:32:54;;;;;;;3.72;1.37;;;24.20;77.30;;;27.16;35.58;94237.00;2428299;56;26535;-63
2021/05/10 06:35:40;;;;;;;1.92;1.40;;;25.60;77.10;;;28.53;34.60;94235.00;2210562;57;26200;-63
2021/05/10 06:38:26;;;;;;;3.08;1.52;;;25.80;74.80;;;27.53;34.59;94232.00;2428630;56;26120;-62
2021/05/10 06:41:13;;;;;;;3.53;1.30;;;24.80;75.70;;;26.26;36.24;94235.00;2210583;57;26105;-62
2021/05/10 06:43:59;;;;;;;2.12;1.50;;;25.40;76.00;;;27.58;35.19;94244.00;2428803;56;26156;-63
2021/05/10 06:46:45;;;;;;;1.70;1.33;;;25.10;75.80;;;27.07;35.73;94252.00;2210627;57;26197;-63
2021/05/10 06:49:32;;;;;;;4.40;1.65;;;25.80;75.10;;;28.32;33.70;94237.00;2428223;56;26633;-63
2021/05/10 06:52:18;;;;;;;2.53;1.42;;;25.80;74.10;;;27.65;34.12;94244.00;2210910;57;26056;-63
2021/05/10 06:55:06;;;;;;;4.43;1.70;;;25.50;75.50;;;27.22;35.50;94256.00;2428787;56;26068;-63
2021/05/10 06:57:53;;;;;;;2.08;1.30;;;25.80;75.60;;;28.38;34.29;94256.00;2210594;57;26585;-63
2021/05/10 07:00:39;;;;;;;4.10;1.35;;;25.80;72.30;;;27.52;33.16;94267.00;2210723;57;26482;-63
2021/05/10 07:03:27;;;;;;;3.95;1.55;;;25.60;72.30;;;27.09;33.61;94271.00;2428899;56;26133;-63
2021/05/10 07:06:13;;;;;;;2.75;1.40;;;25.20;72.80;;;26.32;34.69;94264.00;2210377;57;26482;-63
2021/05/10 07:09:00;;;;;;;2.47;1.30;;;25.00;74.10;;;26.14;35.38;94269.00;2428730;56;26196;-63
2021/05/10 07:11:48;;;;;;;3.60;1.52;;;25.00;73.50;;;25.96;35.64;94256.00;2210400;57;26052;-63
2021/05/10 07:14:34;;;;;;;4.60;1.48;;;25.00;74.90;;;26.67;35.63;94262.00;2428610;56;26518;-62
2021/05/10 07:17:20;;;;;;;5.20;1.50;;;26.40;72.50;;;28.56;32.52;94272.00;2210951;57;26112;-62
2021/05/10 07:20:09;;;;;;;1.98;1.30;;;26.20;72.70;;;28.43;32.85;94272.00;2427771;56;26516;-62
2021/05/10 07:22:56;;;;;;;5.53;1.58;;;26.40;72.70;;;29.19;31.54;94274.00;2210232;57;26124;-62
2021/05/10 07:25:46;;;;;;;4.35;1.65;;;27.80;70.70;;;30.49;29.86;94283.00;2210506;57;26106;-62
2021/05/10 07:28:32;;;;;;;4.68;1.60;;;29.20;70.30;;;32.02;28.87;94272.00;2210631;57;26107;-62
2021/05/10 07:31:19;;;;;;;3.72;1.20;;;28.40;67.00;;;30.19;28.62;94268.00;2209882;57;26079;-63
2021/05/10 07:34:05;;;;;;;2.08;1.45;;;29.10;67.00;;;31.60;27.46;94261.00;2428114;56;26066;-63
2021/05/10 07:36:51;;;;;;;2.72;1.20;;;30.00;65.40;;;32.68;25.95;94255.00;2210653;57;26504;-63
2021/05/10 07:39:38;;;;;;;4.05;1.42;;;29.90;69.70;;;33.76;27.05;94251.00;2428188;56;26166;-63
2021/05/10 07:42:24;;;;;;;3.10;1.50;;;30.60;64.80;;;33.10;25.69;94247.00;2210201;57;26656;-63
2021/05/10 07:45:12;;;;;;;2.90;1.40;;;31.20;64.30;;;33.59;25.54;94243.00;2428356;56;26542;-63
2021/05/10 07:48:00;;;;;;;3.67;1.45;;;30.60;66.40;;;33.59;25.98;94243.00;2208238;57;25029;-63
2021/05/10 07:50:47;;;;;;;2.75;1.37;;;30.70;62.30;;;32.18;25.53;94238.00;2427621;56;26601;-62
2021/05/10 07:53:33;;;;;;;3.45;1.50;;;30.50;64.00;;;32.52;26.25;94234.00;2210571;57;26079;-63
2021/05/10 07:56:19;;;;;;;1.95;1.30;;;30.70;63.60;;;33.53;24.65;94233.00;2210069;57;26481;-63
2021/05/10 07:59:10;;;;;;;3.03;1.35;;;31.40;63.40;;;34.52;23.95;94225.00;2428444;56;25037;-63
2021/05/10 08:01:58;;;;;;;5.50;1.40;;;31.60;62.00;;;34.61;23.59;94227.00;2210580;57;26138;-63
2021/05/10 08:04:45;;;;;;;3.87;1.55;;;31.70;62.60;;;35.70;22.84;94215.00;2210320;57;26175;-64
2021/05/10 08:07:31;;;;;;;2.12;1.37;;;30.70;60.70;;;32.81;23.80;94218.00;2210557;57;25110;-63
2021/05/10 08:10:18;;;;;;;2.17;1.30;;;30.30;60.80;;;32.81;23.67;94218.00;2428560;56;25417;-63
2021/05/10 08:13:05;;;;;;;4.30;1.40;;;30.90;59.70;;;33.30;22.91;94219.00;2210356;57;26610;-63
2021/05/10 08:15:51;;;;;;;4.43;1.77;;;31.20;59.10;;;33.73;22.50;94224.00;2428757;56;26127;-63
2021/05/10 08:18:41;;;;;;;4.10;1.17;;;30.70;61.00;;;33.49;23.72;94226.00;2211122;57;26599;-63
2021/05/10 08:21:28;;;;;;;2.30;1.40;;;31.30;59.70;;;33.91;22.58;94227.00;2427857;56;25022;-63
2021/05/10 08:24:14;;;;;;;2.92;1.25;;;31.10;59.50;;;33.28;23.29;94229.00;2211026;57;26050;-63
2021/05/10 08:27:01;;;;;;;3.22;1.42;;;31.10;61.50;;;34.46;23.08;94216.00;2428652;56;25094;-63
2021/05/10 08:29:47;;;;;;;1.98;1.10;;;31.80;60.20;;;34.25;23.21;94227.00;2210373;57;26185;-63
2021/05/10 08:32:34;;;;;;;1.75;1.25;;;31.50;59.50;;;32.78;24.07;94245.00;2428830;56;26579;-63
2021/05/10 08:35:20;;;;;;;2.55;1.40;;;30.70;60.20;;;32.78;24.07;94228.00;2210989;57;25081;-63
2021/05/10 08:38:07;;;;;;;4.32;1.50;;;31.20;60.20;;;33.75;23.17;94241.00;2210454;57;25101;-63
2021/05/10 08:40:53;;;;;;;4.43;1.50;;;29.60;60.30;;;31.29;25.00;94222.00;2428794;56;25066;-63
2021/05/10 08:43:41;;;;;;;3.00;1.30;;;31.00;61.00;;;33.63;23.85;94222.00;2210979;57;26074;-63
2021/05/10 08:46:27;;;;;;;4.07;1.42;;;32.00;59.30;;;34.34;22.86;94222.00;2428251;56;26166;-62
2021/05/10 08:49:18;;;;;;;5.28;1.60;;;29.90;59.80;;;31.50;24.44;94214.00;2211171;57;25137;-63
2021/05/10 08:52:06;;;;;;;2.65;1.45;;;30.30;59.70;;;32.39;23.76;94208.00;2428390;56;25086;-63
2021/05/10 08:54:53;;;;;;;1.92;1.40;;;31.20;59.40;;;33.70;23.17;94206.00;2210627;57;26605;-63
2021/05/10 08:57:39;;;;;;;3.60;1.40;;;32.80;58.00;;;35.21;21.71;94198.00;2428386;56;25562;-63
2021/05/10 09:00:26;;;;;;;5.18;1.87;;;32.00;59.30;;;33.79;23.14;94206.00;2211017;57;26096;-65
2021/05/10 09:03:12;;;;;;;7.22;1.50;;;30.00;59.00;;;30.92;24.82;94193.00;2428306;56;26177;-63
2021/05/10 09:06:01;;;;;;;3.25;1.35;;;30.40;59.00;;;32.37;23.50;94194.00;2210798;57;26138;-63
2021/05/10 09:08:49;;;;;;;1.67;1.10;;;31.50;58.60;;;33.49;23.17;94188.00;2428427;56;25236;-63
2021/05/10 09:11:51;;;;;;;3.05;1.20;;;32.60;57.10;;;34.86;21.16;94182.00;2210489;57;26550;-62
2021/05/10 09:14:37;;;;;;;5.12;1.60;;;31.90;57.50;;;33.36;22.62;94178.00;2428461;56;26055;-63
2021/05/10 09:17:24;;;;;;;3.35;1.40;;;31.20;57.90;;;32.75;23.09;94170.00;2210957;57;26121;-63
2021/05/10 09:20:18;;;;;;;5.18;1.50;;;31.50;56.60;;;33.08;22.14;94171.00;2428184;56;25026;-63
2021/05/10 09:23:08;;;;;;;3.85;1.45;;;32.10;56.80;;;33.74;21.62;94163.00;2210692;57;25515;-63
2021/05/10 09:25:57;;;;;;;4.68;1.42;;;32.50;58.50;;;34.37;22.98;94150.00;2211064;57;25484;-63
2021/05/10 09:28:44;;;;;;;4.70;1.30;;;33.20;54.80;;;34.79;20.48;94152.00;2210881;57;25089;-63
2021/05/10 09:31:32;;;;;;;3.70;1.50;;;33.00;53.30;;;34.27;19.80;94165.00;2210817;57;25472;-63
2021/05/10 09:34:19;;;;;;;3.53;1.58;;;33.60;54.00;;;35.61;19.38;94165.00;2211044;57;25030;-63
2021/05/10 09:37:11;;;;;;;4.00;1.48;;;33.50;55.50;;;35.60;20.42;94166.00;2428482;56;26619;-63
2021/05/10 09:40:07;;;;;;;2.95;1.30;;;33.70;57.10;;;36.35;21.05;94176.00;2428472;56;25057;-63
2021/05/10 09:42:57;;;;;;;4.43;1.33;;;34.30;54.70;;;35.96;20.15;94182.00;2210764;57;25049;-64
2021/05/10 09:45:48;;;;;;;4.20;1.23;;;31.80;56.90;;;33.26;22.56;94186.00;2428601;56;25124;-63
2021/05/10 09:48:36;;;;;;;4.12;1.67;;;31.80;58.40;;;33.59;23.21;94186.00;2210883;57;25555;-63
2021/05/10 09:51:23;;;;;;;4.78;1.60;;;31.80;57.90;;;33.41;23.03;94187.00;2428040;56;25114;-63
2021/05/10 09:54:14;;;;;;;3.05;1.37;;;32.30;57.60;;;34.22;22.34;94193.00;2210872;57;26149;-64
2021/05/10 09:57:04;;;;;;;4.43;1.50;;;32.60;58.60;;;35.07;22.40;94192.00;2210639;57;25042;-63
2021/05/10 10:00:21;;;;;;;4.12;1.42;;;33.50;55.60;;;35.63;20.76;94185.00;2428418;56;25062;-64
2021/05/10 10:03:28;;;;;;;2.00;1.27;;;34.70;53.20;;;35.84;19.26;94182.00;2428528;56;25089;-64
2021/05/10 10:06:16;;;;;;;2.17;1.30;;;35.10;53.60;;;36.65;18.95;94184.00;2428131;56;25093;-63
2021/05/10 10:09:04;;;;;;;2.12;1.20;;;34.40;54.00;;;36.15;20.01;94190.00;2210218;57;25052;-64
2021/05/10 10:11:50;;;;;;;3.80;1.40;;;35.10;52.50;;;36.52;18.87;94182.00;2427442;56;25589;-64
2021/05/10 10:14:38;;;;;;;3.37;1.40;;;35.90;53.70;;;38.20;18.66;94186.00;2210362;57;25049;-64
2021/05/10 10:17:25;;;;;;;3.03;1.25;;;35.40;52.80;;;36.48;19.33;94180.00;2425294;56;25077;-64
2021/05/10 10:20:13;;;;;;;2.90;1.40;;;33.30;53.10;;;33.83;20.55;94182.00;2210773;57;25097;-64
2021/05/10 10:23:00;;;;;;;3.97;1.50;;;31.50;54.90;;;33.05;21.25;94184.00;2428429;56;25649;-63
2021/05/10 10:25:47;;;;;;;3.33;1.50;;;32.10;54.40;;;33.98;20.56;94190.00;2210755;57;25034;-63
2021/05/10 10:28:36;;;;;;;4.53;1.30;;;33.80;53.40;;;35.65;19.35;94182.00;2428110;56;25482;-64
2021/05/10 10:31:26;;;;;;;6.37;1.40;;;34.30;52.90;;;35.91;19.20;94180.00;2210528;57;25037;-64
2021/05/10 10:34:19;;;;;;;7.82;1.33;;;35.40;53.30;;;36.68;19.51;94188.00;2428561;56;25049;-64
2021/05/10 10:37:07;;;;;;;4.95;1.50;;;33.60;54.30;;;34.90;20.74;94198.00;2428385;56;25073;-63
2021/05/10 10:39:56;;;;;;;4.93;1.50;;;31.40;56.00;;;31.90;23.45;94194.00;2210506;57;25515;-63
2021/05/10 10:42:43;;;;;;;4.55;1.60;;;29.80;59.80;;;31.27;25.68;94197.00;2428663;56;25125;-63
2021/05/10 10:45:30;;;;;;;5.78;1.50;;;29.90;58.70;;;31.41;24.83;94209.00;2428542;56;25081;-63
2021/05/10 10:48:30;;;;;;;4.00;1.50;;;32.70;55.90;;;35.14;20.82;94225.00;2211018;57;25069;-63
2021/05/10 10:51:18;;;;;;;3.78;1.60;;;34.50;54.30;;;36.80;19.72;94213.00;2210612;57;25053;-64
2021/05/10 10:54:21;;;;;;;3.65;1.52;;;33.40;53.80;;;34.76;20.30;94233.00;2424296;56;25093;-64
2021/05/10 10:57:08;;;;;;;5.87;1.50;;;32.40;55.30;;;33.74;21.86;94210.00;2427767;56;25054;-63
2021/05/10 10:59:55;;;;;;;4.43;1.58;;;32.10;56.40;;;34.17;22.34;94204.00;2208508;57;25475;-64
2021/05/10 11:02:45;;;;;;;2.95;1.40;;;31.80;55.80;;;32.78;22.61;94201.00;2426161;56;25048;-64
2021/05/10 11:05:45;;;;;;;3.45;1.30;;;30.60;57.70;;;31.78;24.34;94207.00;2210390;57;25025;-64
2021/05/10 11:08:49;;;;;;;6.07;1.67;;;30.70;57.20;;;32.84;23.08;94200.00;2428133;56;25531;-65
2021/05/10 11:11:42;;;;;;;3.17;1.48;;;35.20;54.90;;;37.19;20.24;94192.00;2428431;56;25098;-65
2021/05/10 11:14:43;;;;;;;2.67;1.52;;;34.80;53.20;;;35.72;20.17;94179.00;2210975;57;25069;-64
2021/05/10 11:17:55;;;;;;;6.28;1.58;;;36.20;53.30;;;37.47;19.52;94181.00;2211053;57;25052;-64
2021/05/10 11:20:43;;;;;;;4.70;1.45;;;34.40;53.00;;;34.42;21.43;94180.00;2210348;57;25113;-64
2021/05/10 11:23:39;;;;;;;4.40;1.40;;;35.90;53.90;;;37.63;19.65;94176.00;2210906;57;25042;-64
2021/05/10 11:26:44;;;;;;;2.58;1.37;;;35.00;54.10;;;36.92;20.08;94183.00;2428695;56;25041;-64
2021/05/10 11:29:49;;;;;;;3.85;1.70;;;35.70;53.70;;;38.32;19.36;94183.00;2428496;56;25105;-64
2021/05/10 11:32:36;;;;;;;5.20;1.55;;;34.30;53.80;;;35.48;20.35;94172.00;2428345;56;25462;-64
2021/05/10 11:35:28;;;;;;;2.33;1.60;;;33.10;54.00;;;34.80;20.57;94180.00;2210735;57;25467;-64
2021/05/10 11:38:17;;;;;;;4.55;1.37;;;35.80;52.80;;;37.85;18.58;94177.00;2428562;56;25535;-64
2021/05/10 11:41:04;;;;;;;4.05;1.45;;;33.90;53.20;;;35.29;20.31;94167.00;2211204;57;25487;-64
2021/05/10 11:43:50;;;;;;;5.18;1.65;;;35.00;52.90;;;36.55;19.42;94159.00;2428520;56;25081;-65